»·PEaware :: AAL1524 KLAS-KMRY

AAL1524 :: KLAS-KMRY

FLIGHT INFORMATION

Flight Status: Arrived
Operator:
American Airlines
More flights by this operator :: More flights under this callsign
Pilot: Matteo S. (9898)
Aircraft: AIRBUS A320
(A320)
More flights by this aircraft type
Origin: KLAS McCarran Intl
United States
Destination: KMRY Monterey Peninsula
United States
More flights between these airports :: More routes between these airports
Route: +SHEAD9 KENNO BIH PXN SNS
File this flight plan on PilotEdge
Remarks:
Altitude:
(Current/Filed)
32,000ft
Speed:
(Current/Filed)
460kts
Departed: 29-Nov-17 10:08 AM
Arrived: 29-Nov-17 11:12 AM
Distance/Time
Traveled:
325nm/1:03
Distance/Time
To Go:
Arrived

Flight Plot

Page will automatically refresh every two minutes.

Flight plan parsing failed; only flown route is shown


Map Options




Map Legend


Flown Route
Filed Route
Departure Airport
Arrival Airport
Navaid (VOR, NDB)
Fix

Horizontal Profiles

Position Reports

Time Latitude Longitude Heading Altitude Ground
Speed
29-Nov-17 09:50 36.082330 -115.135183 318 2150ft 0kts
29-Nov-17 09:51 36.082330 -115.135183 318 2150ft 0kts
29-Nov-17 09:52 36.082330 -115.135183 318 2150ft 0kts
29-Nov-17 09:53 36.082330 -115.135183 318 2150ft 0kts
29-Nov-17 09:54 36.082330 -115.135183 318 2150ft 0kts
29-Nov-17 09:55 36.082330 -115.135183 318 2150ft 0kts
29-Nov-17 09:56 36.082330 -115.135183 318 2150ft 0kts
29-Nov-17 09:57 36.082330 -115.135183 318 2150ft 0kts
29-Nov-17 09:58 36.082330 -115.135183 318 2150ft 0kts
29-Nov-17 09:59 36.082330 -115.135183 318 2150ft 0kts
29-Nov-17 10:00 36.082330 -115.135183 318 2150ft 0kts
29-Nov-17 10:01 36.082330 -115.135183 318 2150ft 0kts
29-Nov-17 10:02 36.082187 -115.134964 297 2150ft 2kts
29-Nov-17 10:03 36.082161 -115.134254 245 2150ft 2kts
29-Nov-17 10:04 36.082697 -115.133764 185 2150ft 2kts
29-Nov-17 10:05 36.082810 -115.133761 175 2150ft 0kts
29-Nov-17 10:06 36.082760 -115.133757 175 2150ft 0kts
29-Nov-17 10:07 36.081729 -115.133734 181 2150ft 7kts
29-Nov-17 10:08 36.079346 -115.133748 178 2150ft 10kts
29-Nov-17 10:09 36.078301 -115.130897 90 2150ft 13kts
29-Nov-17 10:10 36.078282 -115.125778 89 2150ft 16kts
29-Nov-17 10:11 36.077730 -115.121864 131 2150ft 12kts
29-Nov-17 10:12 36.076416 -115.122437 271 2150ft 15kts
29-Nov-17 10:13 36.076303 -115.168806 270 3770ft 184kts
29-Nov-17 10:14 36.073389 -115.238567 248 6736ft 244kts
29-Nov-17 10:15 36.012049 -115.283560 202 7253ft 283kts
29-Nov-17 10:16 35.946750 -115.331705 224 7897ft 282kts
29-Nov-17 10:17 35.892372 -115.399674 240 9042ft 284kts
29-Nov-17 10:18 35.887646 -115.497174 271 10526ft 296kts
29-Nov-17 10:19 35.889849 -115.610966 271 11032ft 343kts
29-Nov-17 10:20 35.891686 -115.716978 269 11660ft 363kts
29-Nov-17 10:21 35.893776 -115.843044 270 14777ft 375kts
29-Nov-17 10:22 35.903268 -115.971800 298 17432ft 389kts
29-Nov-17 10:23 35.979799 -116.067453 316 19661ft 404kts
29-Nov-17 10:24 36.062975 -116.163377 314 22036ft 410kts
29-Nov-17 10:25 36.144120 -116.257189 314 24663ft 400kts
29-Nov-17 10:26 36.226177 -116.352280 314 26378ft 409kts
29-Nov-17 10:27 36.309468 -116.449092 314 27981ft 415kts
29-Nov-17 10:28 36.393997 -116.547656 314 29435ft 420kts
29-Nov-17 10:29 36.479315 -116.647451 314 30694ft 426kts
29-Nov-17 10:30 36.563927 -116.745280 318 32256ft 424kts
29-Nov-17 10:31 36.663577 -116.823439 324 32309ft 424kts
29-Nov-17 10:32 36.764089 -116.899918 324 32311ft 424kts
29-Nov-17 10:33 36.864542 -116.976571 325 32308ft 424kts
29-Nov-17 10:34 36.964733 -117.053258 325 32307ft 423kts
29-Nov-17 10:35 37.064564 -117.129909 325 32367ft 423kts
29-Nov-17 10:36 37.163840 -117.206367 325 32366ft 422kts
29-Nov-17 10:37 37.258987 -117.290338 310 32371ft 418kts
29-Nov-17 10:38 37.306959 -117.419871 278 32386ft 417kts
29-Nov-17 10:39 37.318061 -117.564673 277 32363ft 415kts
29-Nov-17 10:40 37.328761 -117.705360 277 32310ft 415kts
29-Nov-17 10:41 37.339627 -117.850014 277 32323ft 416kts
29-Nov-17 10:42 37.350449 -117.996111 280 32274ft 428kts
29-Nov-17 10:43 37.361439 -118.147343 280 32310ft 442kts
29-Nov-17 10:44 37.372441 -118.301993 280 32391ft 447kts
29-Nov-17 10:45 37.353207 -118.457949 256 32392ft 464kts
29-Nov-17 10:46 37.312721 -118.610793 256 32386ft 461kts
29-Nov-17 10:47 37.273615 -118.758294 256 32345ft 459kts
29-Nov-17 10:48 37.233378 -118.909240 256 32354ft 458kts
29-Nov-17 10:49 37.192853 -119.060408 256 32361ft 459kts
29-Nov-17 10:50 37.151972 -119.212231 256 32381ft 460kts
29-Nov-17 10:51 37.110840 -119.363722 256 32392ft 461kts
29-Nov-17 10:52 37.069426 -119.515492 256 32312ft 460kts
29-Nov-17 10:53 37.028720 -119.663787 255 31478ft 453kts
29-Nov-17 10:54 36.988199 -119.810597 255 30183ft 444kts
29-Nov-17 10:55 36.948367 -119.954134 255 28014ft 433kts
29-Nov-17 10:56 36.909367 -120.093973 254 25829ft 421kts
29-Nov-17 10:57 36.873204 -120.222980 254 23756ft 408kts
29-Nov-17 10:58 36.836335 -120.353875 254 21607ft 394kts
29-Nov-17 10:59 36.800545 -120.480338 254 19486ft 380kts
29-Nov-17 11:00 36.765911 -120.602160 253 17427ft 365kts
29-Nov-17 11:01 36.735877 -120.707356 250 15648ft 347kts
29-Nov-17 11:02 36.713087 -120.819319 262 13707ft 330kts
29-Nov-17 11:03 36.706275 -120.933086 266 11851ft 331kts
29-Nov-17 11:04 36.699402 -121.045503 265 10348ft 311kts
29-Nov-17 11:05 36.693191 -121.145138 265 9419ft 278kts
29-Nov-17 11:06 36.687173 -121.241617 264 8064ft 280kts
29-Nov-17 11:07 36.668033 -121.334269 253 7216ft 267kts
29-Nov-17 11:08 36.647423 -121.421746 254 6027ft 262kts
29-Nov-17 11:09 36.612537 -121.501489 233 6020ft 263kts
29-Nov-17 11:10 36.571046 -121.574083 234 6012ft 250kts
29-Nov-17 11:11 36.531543 -121.643649 234 5433ft 239kts
29-Nov-17 11:12 36.532552 -121.716869 299 4746ft 234kts
29-Nov-17 11:13 36.579952 -121.771839 4 3698ft 224kts
29-Nov-17 11:14 36.583588 -121.727176 152 4084ft 165kts
29-Nov-17 11:15 36.564083 -121.771884 270 2463ft 196kts
29-Nov-17 11:16 36.582806 -121.832168 294 389ft 171kts
29-Nov-17 11:17 36.589822 -121.855788 116 264ft 12kts
29-Nov-17 11:18 36.588334 -121.850732 110 264ft 16kts
29-Nov-17 11:19 36.587556 -121.850127 231 264ft 0kts
29-Nov-17 11:20 36.587557 -121.850127 231 264ft 0kts

Navigation Log

Ident Type
Flight plan parsing failed, navigation log unavailable